Atlantic - Newfoundland: Past 24 Hour Conditions

 

St. Anthony Airport

01:30 PM NDT 25 May 2016
Disclaimer

This table is a summary of hourly weather conditions for the past 24 hours.
Please note that these observations might not always be representative of weather conditions over their associated marine area.

Date / Time
(NDT)
Wind(knots) Conditions Visibility(km) Pressure(kPa) Air tempC) Relative humidity(%) Dew pointC)
25 May 2016
13:30 NNE 18 gust 24 Light Rain 16 102.0 4 92 3
12:30 NNE 23 Cloudy 16 101.9 5 81 2
11:30 NNE 19 gust 27 Cloudy 16 101.9 6 77 3
10:30 NE 18 gust 24 Cloudy 16 101.8 7 79 4
9:30 WNW 8 Cloudy 16 101.7 8 96 8
8:30 NW 9 Fog 0.6 101.7 7 97 7
7:30 WNW 9 Mist 2 101.7 9 97 9
6:30 W 10 gust 16 Mist 10 101.6 9 96 9
5:30 SW 15 gust 20 Mist 6 101.5 9 97 8
4:30 WSW 15 gust 21 Mist 10 101.5 9 96 8
3:30 WSW 11 gust 18 Cloudy 16 101.5 9 94 9
2:30 WSW 9 gust 18 Cloudy 15 101.5 9 94 9
1:30 SW 13 gust 22 Cloudy 16 101.5 10 93 9
0:30 WSW 19 gust 24 Cloudy 16 101.5 10 93 9
24 May 2016
23:30 WSW 19 gust 25 Cloudy 16 101.5 11 92 9
22:30 SW 19 gust 25 Cloudy 16 101.5 11 88 9
21:30 WSW 18 gust 29 Cloudy 16 101.5 11 87 9
20:30 WSW 18 gust 23 Partly Cloudy 16 101.4 12 84 10
19:30 SW 19 gust 25 Mostly Cloudy 16 101.5 14 80 10
18:30 WSW 24 gust 32 Mainly Sunny 16 101.5 14 79 10
17:30 WSW 25 gust 31 Sunny 16 101.5 14 75 10
16:30 WSW 21 gust 28 Sunny 16 101.5 16 72 11
15:30 W 20 Sunny 16 101.5 17 67 11
14:30 WSW 19 gust 24 Sunny 16 101.5 17 68 11
13:30 WSW 16 gust 23 Sunny 16 101.6 17 65 11

Zoom-in to make a selection

Map of Atlantic - Newfoundland marine weather areas Southwestern Grand Banks - 44138 Banquereau - 44139 Tail of the Bank - 44140 Nickerson Bank - 44251 Northeast Burgeo Bank - 44255 Blanc-Sablon Airport Cap Whittle Chevery Natashquan Airport Heath Point Miscou Island Grand Étang Ingonish Beach North Mountain St.Paul Island J.A. Douglas McCurdy Sydney Airport Charlottetown Airport East Point North Cape Argentia Bonavista Burgeo Cape Race Corner Brook Daniel's Harbour Englee Ferolle Point La Scie Port aux Basques Rocky Harbour Sagona Island St. Anthony Airport St. John's Int'l Airport St. Lawrence Stephenville Airport Twillingate Winterland Wreckhouse Cartwright Airport Mary's Harbour Grates Cove Pool's Island Marticot Island Long Pond Eskasoni (First Nations) Îles de la Madeleine Airport
Legend:
buoy Buoy
land station Land Station

Atlantic - Newfoundland Area

Another Region

What we are doing

Date modified: